Time;durP1;ratioP1;P1;durP2;ratioP2;P2;SDS_P1;SDS_P2;PMS_P1;PMS_P2;Temp;Humidity;BMP_temperature;BMP_pressure;BME280_temperature;BME280_humidity;BME280_pressure;Samples;Min_cycle;Max_cycle;Signal;HPM_P1;HPM_P2
2023/09/10 00:00:15;;;;;;;;;;;;;;;;;;2065451;28;20353;-73
2023/09/10 00:01:36;;;;;;;;;;;;;;;;;;2065993;28;19921;-73
2023/09/10 00:02:57;;;;;;;;;;;;;;;;;;2066678;28;19910;-73
2023/09/10 00:04:17;;;;;;;;;;;;;;;;;;2061474;28;19925;-72
2023/09/10 00:05:38;;;;;;;;;;;;;;;;;;2070556;28;19960;-72
2023/09/10 00:06:59;;;;;;;;;;;;;;;;;;2071867;28;19914;-73
2023/09/10 00:08:19;;;;;;;;;;;;;;;;;;2072919;28;20246;-74
2023/09/10 00:09:40;;;;;;;;;;;;;;;;;;2071143;28;19913;-74
2023/09/10 00:11:01;;;;;;;;;;;;;;;;;;2062871;28;19914;-71
2023/09/10 00:12:22;;;;;;;;;;;;;;;;;;2065114;28;19964;-73
2023/09/10 00:13:42;;;;;;;;;;;;;;;;;;2073122;28;19913;-73
2023/09/10 00:15:04;;;;;;;;;;;;;;;;;;2065744;28;20231;-72
2023/09/10 00:16:24;;;;;;;;;;;;;;;;;;2055475;28;20226;-72
2023/09/10 00:17:45;;;;;;;;;;;;;;;;;;2062811;28;19978;-73
2023/09/10 00:19:06;;;;;;;;;;;;;;;;;;2062510;28;19913;-73
2023/09/10 00:20:27;;;;;;;;;;;;;;;;;;2057356;28;19914;-72
2023/09/10 00:21:47;;;;;;;;;;;;;;;;;;2048203;28;19946;-74
2023/09/10 00:23:08;;;;;;;;;;;;;;;;;;2053986;28;20372;-74
2023/09/10 00:24:29;;;;;;;;;;;;;;;;;;2052295;28;19922;-73
2023/09/10 00:25:49;;;;;;;;;;;;;;;;;;2066237;28;19921;-74
2023/09/10 00:27:10;;;;;;;;;;;;;;;;;;2068609;28;19960;-73
2023/09/10 00:28:31;;;;;;;;;;;;;;;;;;2059281;28;19922;-74
2023/09/10 00:29:51;;;;;;;;;;;;;;;;;;2064864;28;19914;-74
2023/09/10 00:31:12;;;;;;;;;;;;;;;;;;2073022;28;19921;-73
2023/09/10 00:32:33;;;;;;;;;;;;;;;;;;2069881;28;19921;-77
2023/09/10 00:34:04;;;;;;;43.63;28.88;;;;;;;;;;2108514;27;21196;-82
2023/09/10 00:35:25;;;;;;;43.85;29.88;;;;;;;;;;2096654;28;20514;-82
2023/09/10 00:36:46;;;;;;;50.50;30.88;;;;;;;;;;2080930;28;20037;-76
2023/09/10 00:38:07;;;;;;;45.83;30.23;;;;;;;;;;2081144;28;20099;-75
2023/09/10 00:39:28;;;;;;;52.70;30.80;;;;;;;;;;2091689;28;20037;-78
2023/09/10 00:40:49;;;;;;;47.20;31.85;;;;;;;;;;2091048;28;20025;-78
2023/09/10 00:42:10;;;;;;;53.50;31.77;;;;;;;;;;2086345;28;20163;-78
2023/09/10 00:43:31;;;;;;;46.17;32.28;;;;;;;;;;2090397;28;20021;-79
2023/09/10 00:44:52;;;;;;;43.83;30.75;;;;;;;;;;2096759;28;20295;-78
2023/09/10 00:46:13;;;;;;;48.25;32.45;;;;;;;;;;2091225;28;20037;-77
2023/09/10 00:47:38;;;;;;;46.65;31.65;;;;;;;;;;2091924;28;20658;-75
2023/09/10 00:48:59;;;;;;;43.28;30.63;;;;;;;;;;2092732;28;20043;-75
2023/09/10 00:50:21;;;;;;;49.00;32.80;;;;;;;;;;2083801;28;20091;-76
2023/09/10 00:51:42;;;;;;;43.78;31.67;;;;;;;;;;2084174;28;20029;-75
2023/09/10 00:53:04;;;;;;;47.78;32.55;;;;;;;;;;2082252;28;20029;-73
2023/09/10 00:54:25;;;;;;;48.00;32.30;;;;;;;;;;2090676;28;20222;-76
2023/09/10 00:55:47;;;;;;;46.50;33.00;;;;;;;;;;2090357;28;20194;-73
2023/09/10 00:57:07;;;;;;;50.58;32.63;;;;;;;;;;2093948;28;20116;-73
2023/09/10 00:58:28;;;;;;;46.63;33.10;;;;;;;;;;2087651;28;20423;-73
2023/09/10 00:59:49;;;;;;;46.67;29.60;;;;;;;;;;2097235;28;20097;-73
2023/09/10 01:01:10;;;;;;;47.70;33.38;;;;;;;;;;2098823;28;20032;-76
2023/09/10 01:02:31;;;;;;;49.70;33.03;;;;;;;;;;2096702;28;20030;-75
2023/09/10 01:03:52;;;;;;;44.53;32.65;;;;;;;;;;2102241;28;20472;-76
2023/09/10 01:05:15;;;;;;;50.05;33.97;;;;;;;;;;2093604;28;20021;-75
2023/09/10 01:06:36;;;;;;;49.15;32.17;;;;;;;;;;2089009;28;20033;-76
2023/09/10 01:07:58;;;;;;;52.00;32.47;;;;;;;;;;2087510;28;20029;-75
2023/09/10 01:09:19;;;;;;;44.97;33.10;;;;;;;;;;2089114;28;20031;-75
2023/09/10 01:10:48;;;;;;;47.13;30.80;;;;;;;;;;2084312;28;20392;-75
2023/09/10 01:12:12;;;;;;;46.10;31.70;;;;;;;;;;2090604;28;20040;-75
2023/09/10 01:13:39;;;;;;;49.67;33.78;;;;;;;;;;2078247;28;20052;-75
2023/09/10 01:15:23;;;;;;;50.58;33.50;;;;;;;;;;2089774;28;20021;-75
2023/09/10 01:16:59;;;;;;;45.90;32.25;;;;;;;;;;2090257;28;20052;-76
2023/09/10 01:18:26;;;;;;;46.33;31.67;;;;;;;;;;2090884;28;20033;-75
2023/09/10 01:19:53;;;;;;;50.22;33.03;;;;;;;;;;2101033;28;20032;-75
2023/09/10 01:21:17;;;;;;;52.75;34.28;;;;;;;;;;2089305;28;20473;-73
2023/09/10 01:22:47;;;;;;;46.47;32.83;;;;;;;;;;2093452;28;20025;-73
2023/09/10 01:24:14;;;;;;;45.83;31.00;;;;;;;;;;2093045;28;20037;-73
2023/09/10 01:25:35;;;;;;;49.60;33.72;;;;;;;;;;2097185;28;20056;-73
2023/09/10 01:26:57;;;;;;;49.10;32.43;;;;;;;;;;2094910;28;20701;-73
2023/09/10 01:28:18;;;;;;;51.72;33.10;;;;;;;;;;2091166;28;20429;-73
2023/09/10 01:29:39;;;;;;;46.78;32.22;;;;;;;;;;2093927;28;20039;-74
2023/09/10 01:31:00;;;;;;;49.22;33.75;;;;;;;;;;2088908;28;20048;-73
2023/09/10 01:32:26;;;;;;;47.78;32.25;;;;;;;;;;2088887;28;20090;-73
2023/09/10 01:33:55;;;;;;;48.80;32.88;;;;;;;;;;2092746;28;20033;-73
2023/09/10 01:35:20;;;;;;;47.75;32.92;;;;;;;;;;2091305;28;20024;-73
2023/09/10 01:36:46;;;;;;;45.80;32.63;;;;;;;;;;2096441;28;20536;-73
2023/09/10 01:38:15;;;;;;;50.28;34.33;;;;;;;;;;2097461;28;20598;-73
2023/09/10 01:39:38;;;;;;;52.35;35.88;;;;;;;;;;2092246;28;20036;-73
2023/09/10 01:41:03;;;;;;;51.70;34.75;;;;;;;;;;2092786;28;20568;-73
2023/09/10 01:42:25;;;;;;;50.90;33.88;;;;;;;;;;2090256;28;20050;-74
2023/09/10 01:43:46;;;;;;;49.47;34.03;;;;;;;;;;2096629;28;20020;-75
2023/09/10 01:45:09;;;;;;;51.35;35.47;;;;;;;;;;2096543;28;20393;-75
2023/09/10 01:46:30;;;;;;;50.70;33.85;;;;;;;;;;2079027;28;20421;-75
2023/09/10 01:47:51;;;;;;;54.47;35.80;;;;;;;;;;2074464;28;20038;-75
2023/09/10 01:49:12;;;;;;;53.78;37.65;;;;;;;;;;2084099;28;20060;-74
2023/09/10 01:50:34;;;;;;;57.20;37.33;;;;;;;;;;2079478;28;20030;-75
2023/09/10 01:51:54;;;;;;;61.13;37.40;;;;;;;;;;2085524;28;20411;-75
2023/09/10 01:53:16;;;;;;;54.53;36.97;;;;;;;;;;2089554;28;20037;-75
2023/09/10 01:54:37;;;;;;;68.85;39.88;;;;;;;;;;2078458;28;20041;-75
2023/09/10 01:55:58;;;;;;;66.20;43.60;;;;;;;;;;2080489;28;20033;-75
2023/09/10 01:57:19;;;;;;;64.53;40.80;;;;;;;;;;2085059;28;20556;-75
2023/09/10 01:58:40;;;;;;;63.13;40.80;;;;;;;;;;2086438;28;20480;-75
2023/09/10 02:00:01;;;;;;;60.33;40.28;;;;;;;;;;2085434;28;20025;-75
2023/09/10 02:01:22;;;;;;;72.03;42.28;;;;;;;;;;2085318;28;20079;-75
2023/09/10 02:02:42;;;;;;;69.43;42.80;;;;;;;;;;2085878;28;20033;-77
2023/09/10 02:04:04;;;;;;;64.88;41.50;;;;;;;;;;2093344;28;20032;-77
2023/09/10 02:05:25;;;;;;;66.43;43.50;;;;;;;;;;2088616;28;20033;-77
2023/09/10 02:06:45;;;;;;;63.22;40.70;;;;;;;;;;2093474;28;20085;-77
2023/09/10 02:08:06;;;;;;;65.45;41.65;;;;;;;;;;2098247;28;20621;-77
2023/09/10 02:09:27;;;;;;;66.72;41.90;;;;;;;;;;2097063;28;20029;-77
2023/09/10 02:10:48;;;;;;;66.53;42.33;;;;;;;;;;2088841;28;20052;-77
2023/09/10 02:12:09;;;;;;;62.75;40.80;;;;;;;;;;2093399;28;20033;-77
2023/09/10 02:13:30;;;;;;;59.03;41.13;;;;;;;;;;2099869;28;20032;-78
2023/09/10 02:14:51;;;;;;;61.90;41.60;;;;;;;;;;2084979;28;20476;-77
2023/09/10 02:16:12;;;;;;;63.22;39.88;;;;;;;;;;2081609;28;20026;-77
2023/09/10 02:17:33;;;;;;;68.28;43.30;;;;;;;;;;2084009;28;20029;-76
2023/09/10 02:18:54;;;;;;;66.28;42.90;;;;;;;;;;2085937;28;20036;-77
2023/09/10 02:20:15;;;;;;;67.10;43.22;;;;;;;;;;2084101;28;20351;-77
2023/09/10 02:21:36;;;;;;;65.88;42.25;;;;;;;;;;2083281;28;20021;-77
2023/09/10 02:22:57;;;;;;;59.78;39.75;;;;;;;;;;2083385;28;20029;-77
2023/09/10 02:24:17;;;;;;;64.60;42.05;;;;;;;;;;2077443;28;20045;-77
2023/09/10 02:25:38;;;;;;;70.45;41.65;;;;;;;;;;2083917;28;20405;-76
2023/09/10 02:26:59;;;;;;;65.57;42.08;;;;;;;;;;2089202;28;20070;-77
2023/09/10 02:28:23;;;;;;;62.00;40.38;;;;;;;;;;2078625;28;20548;-76
2023/09/10 02:29:44;;;;;;;64.05;41.50;;;;;;;;;;2079658;28;20342;-76
2023/09/10 02:31:06;;;;;;;61.25;40.92;;;;;;;;;;2073843;28;20651;-77
2023/09/10 02:32:27;;;;;;;62.67;40.22;;;;;;;;;;2079963;28;20488;-77
2023/09/10 02:33:48;;;;;;;63.20;42.08;;;;;;;;;;2077582;28;20100;-77
2023/09/10 02:35:09;;;;;;;68.00;44.05;;;;;;;;;;2079343;28;20033;-75
2023/09/10 02:36:30;;;;;;;64.72;42.05;;;;;;;;;;2085781;28;20145;-76
2023/09/10 02:37:50;;;;;;;64.30;41.28;;;;;;;;;;2084165;28;20166;-76
2023/09/10 02:39:11;;;;;;;65.30;42.78;;;;;;;;;;2084006;28;20448;-76
2023/09/10 02:40:32;;;;;;;64.28;42.00;;;;;;;;;;2083087;28;20102;-76
2023/09/10 02:41:53;;;;;;;63.40;41.72;;;;;;;;;;2093132;28;20035;-77
2023/09/10 02:43:14;;;;;;;68.45;45.58;;;;;;;;;;2085179;28;20369;-77
2023/09/10 02:44:35;;;;;;;70.95;44.88;;;;;;;;;;2084792;28;20033;-77
2023/09/10 02:45:56;;;;;;;71.68;45.95;;;;;;;;;;2092960;28;20082;-77
2023/09/10 02:47:17;;;;;;;69.88;44.45;;;;;;;;;;2094590;28;20041;-77
2023/09/10 02:48:38;;;;;;;72.50;44.78;;;;;;;;;;2094188;28;20409;-75
2023/09/10 02:49:58;;;;;;;74.63;48.08;;;;;;;;;;2091885;28;20032;-76
2023/09/10 02:51:19;;;;;;;74.47;48.20;;;;;;;;;;2095687;28;20089;-77
2023/09/10 02:52:40;;;;;;;75.68;47.90;;;;;;;;;;2084699;28;20033;-77
2023/09/10 02:54:01;;;;;;;74.60;47.00;;;;;;;;;;2083040;28;20353;-76
2023/09/10 02:55:22;;;;;;;67.38;44.33;;;;;;;;;;2088890;28;20025;-75
2023/09/10 02:56:43;;;;;;;81.65;48.38;;;;;;;;;;2093615;28;20028;-76
2023/09/10 02:58:06;;;;;;;76.15;49.13;;;;;;;;;;2095105;28;20538;-77
2023/09/10 02:59:26;;;;;;;;;;;;;;;;;;2090048;28;20900;-76
2023/09/10 03:00:47;;;;;;;75.82;45.80;;;;;;;;;;2093354;28;19908;-77
2023/09/10 03:02:08;;;;;;;72.68;46.17;;;;;;;;;;2087974;28;20488;-76
2023/09/10 03:03:29;;;;;;;77.00;49.17;;;;;;;;;;2093302;28;20033;-77
2023/09/10 03:04:50;;;;;;;78.90;47.17;;;;;;;;;;2095726;28;20036;-77
2023/09/10 03:06:12;;;;;;;74.30;48.30;;;;;;;;;;2090081;28;20090;-76
2023/09/10 03:07:33;;;;;;;;;;;;;;;;;;2088913;28;20037;-77
2023/09/10 03:08:54;;;;;;;75.30;46.28;;;;;;;;;;2089447;28;20342;-77
2023/09/10 03:10:15;;;;;;;73.35;47.55;;;;;;;;;;2094945;28;20086;-77
2023/09/10 03:11:37;;;;;;;79.50;49.88;;;;;;;;;;2095750;28;20484;-77
2023/09/10 03:12:58;;;;;;;79.03;48.88;;;;;;;;;;2082681;28;20101;-74
2023/09/10 03:14:19;;;;;;;77.30;48.08;;;;;;;;;;2092240;28;20261;-73
2023/09/10 03:15:40;;;;;;;79.47;50.67;;;;;;;;;;2095321;28;20025;-73
2023/09/10 03:17:01;;;;;;;78.57;49.70;;;;;;;;;;2085500;28;20100;-73
2023/09/10 03:18:23;;;;;;;76.35;48.05;;;;;;;;;;2090942;28;20021;-75
2023/09/10 03:19:44;;;;;;;86.60;50.25;;;;;;;;;;2093736;28;20446;-75
2023/09/10 03:21:05;;;;;;;80.90;51.17;;;;;;;;;;2096802;28;20070;-74
2023/09/10 03:22:26;;;;;;;75.80;46.75;;;;;;;;;;2082460;28;20048;-74
2023/09/10 03:23:46;;;;;;;76.68;49.10;;;;;;;;;;2083747;28;20025;-73
2023/09/10 03:25:08;;;;;;;76.68;48.67;;;;;;;;;;2090360;28;20438;-73
2023/09/10 03:26:28;;;;;;;75.90;46.38;;;;;;;;;;2086218;28;20032;-75
2023/09/10 03:27:49;;;;;;;81.75;50.65;;;;;;;;;;2090953;28;20488;-72
2023/09/10 03:29:10;;;;;;;74.72;47.22;;;;;;;;;;2084998;28;20037;-72
2023/09/10 03:30:31;;;;;;;82.50;46.55;;;;;;;;;;2090635;28;20637;-73
2023/09/10 03:31:53;;;;;;;76.07;48.00;;;;;;;;;;2095872;28;20029;-72
2023/09/10 03:33:13;;;;;;;76.47;47.07;;;;;;;;;;2083573;28;20036;-73
2023/09/10 03:34:34;;;;;;;71.88;47.13;;;;;;;;;;2091870;28;20457;-72
2023/09/10 03:35:55;;;;;;;69.68;45.70;;;;;;;;;;2096116;28;20033;-74
2023/09/10 03:37:16;;;;;;;75.03;47.17;;;;;;;;;;2095142;28;20075;-74
2023/09/10 03:38:37;;;;;;;73.10;46.85;;;;;;;;;;2093733;28;20102;-72
2023/09/10 03:39:58;;;;;;;76.38;46.63;;;;;;;;;;2093285;28;20036;-72
2023/09/10 03:41:19;;;;;;;71.13;46.70;;;;;;;;;;2092117;28;20500;-72
2023/09/10 03:42:40;;;;;;;73.18;46.60;;;;;;;;;;2085494;28;20046;-74
2023/09/10 03:44:02;;;;;;;77.03;47.05;;;;;;;;;;2090802;28;20041;-72
2023/09/10 03:45:23;;;;;;;68.28;44.22;;;;;;;;;;2086284;28;20025;-73
2023/09/10 03:46:44;;;;;;;73.90;47.35;;;;;;;;;;2090006;28;20502;-73
2023/09/10 03:48:05;;;;;;;78.50;49.58;;;;;;;;;;2095113;28;20039;-73
2023/09/10 03:49:26;;;;;;;72.97;47.88;;;;;;;;;;2095846;28;20549;-73
2023/09/10 03:50:47;;;;;;;72.70;45.20;;;;;;;;;;2091608;28;20032;-72
2023/09/10 03:52:14;;;;;;;78.32;46.35;;;;;;;;;;2084444;28;20130;-75
2023/09/10 03:53:35;;;;;;;73.32;47.35;;;;;;;;;;2090057;28;20029;-73
2023/09/10 03:54:56;;;;;;;71.60;45.80;;;;;;;;;;2093241;28;20048;-72
2023/09/10 03:56:17;;;;;;;72.95;46.25;;;;;;;;;;2083612;28;20037;-72
2023/09/10 03:57:38;;;;;;;81.15;50.22;;;;;;;;;;2086273;28;20032;-74
2023/09/10 03:58:58;;;;;;;77.55;48.08;;;;;;;;;;2091244;28;20427;-75
2023/09/10 04:00:19;;;;;;;80.25;50.55;;;;;;;;;;2093436;28;20040;-73
2023/09/10 04:01:40;;;;;;;80.95;49.00;;;;;;;;;;2081866;28;20070;-74
2023/09/10 04:03:02;;;;;;;82.22;50.50;;;;;;;;;;2087653;28;20107;-72
2023/09/10 04:04:23;;;;;;;83.47;50.92;;;;;;;;;;2091325;28;20028;-73
2023/09/10 04:05:44;;;;;;;77.25;47.90;;;;;;;;;;2087283;28;20036;-70
2023/09/10 04:07:05;;;;;;;85.78;53.15;;;;;;;;;;2098481;28;20040;-71
2023/09/10 04:08:26;;;;;;;81.38;48.75;;;;;;;;;;2091704;28;20085;-74
2023/09/10 04:09:47;;;;;;;79.07;49.58;;;;;;;;;;2095421;28;20032;-73
2023/09/10 04:11:08;;;;;;;83.10;50.28;;;;;;;;;;2086837;28;20091;-73
2023/09/10 04:12:29;;;;;;;84.25;52.03;;;;;;;;;;2093425;28;20225;-73
2023/09/10 04:13:50;;;;;;;77.97;50.13;;;;;;;;;;2086728;28;20580;-72
2023/09/10 04:15:11;;;;;;;84.38;53.33;;;;;;;;;;2094212;28;20032;-72
2023/09/10 04:16:32;;;;;;;87.82;52.83;;;;;;;;;;2103223;28;20016;-71
2023/09/10 04:17:53;;;;;;;85.65;51.78;;;;;;;;;;2087958;28;20409;-72
2023/09/10 04:19:14;;;;;;;89.38;53.75;;;;;;;;;;2092823;28;20572;-72
2023/09/10 04:20:35;;;;;;;83.82;51.40;;;;;;;;;;2097892;28;20040;-72
2023/09/10 04:21:56;;;;;;;87.53;53.20;;;;;;;;;;2096577;28;20048;-71
2023/09/10 04:23:16;;;;;;;92.70;55.72;;;;;;;;;;2089782;28;20529;-73
2023/09/10 04:24:37;;;;;;;90.85;54.35;;;;;;;;;;2096446;28;20063;-73
2023/09/10 04:25:58;;;;;;;83.35;52.30;;;;;;;;;;2095669;28;20044;-74
2023/09/10 04:27:19;;;;;;;91.20;55.28;;;;;;;;;;2087718;28;20080;-74
2023/09/10 04:28:40;;;;;;;82.50;51.08;;;;;;;;;;2089515;28;20480;-73
2023/09/10 04:30:02;;;;;;;85.88;52.15;;;;;;;;;;2094230;28;20087;-73
2023/09/10 04:31:23;;;;;;;82.57;51.13;;;;;;;;;;2079672;28;20369;-73
2023/09/10 04:32:44;;;;;;;85.45;53.33;;;;;;;;;;2092725;28;20039;-73
2023/09/10 04:34:05;;;;;;;94.15;55.17;;;;;;;;;;2096057;28;20389;-73
2023/09/10 04:35:25;;;;;;;87.80;55.55;;;;;;;;;;2088932;28;20029;-72
2023/09/10 04:36:46;;;;;;;93.60;55.10;;;;;;;;;;2083939;28;20193;-73
2023/09/10 04:38:07;;;;;;;85.78;53.55;;;;;;;;;;2089382;28;20033;-74
2023/09/10 04:39:28;;;;;;;81.35;51.97;;;;;;;;;;2096489;28;20083;-74
2023/09/10 04:40:49;;;;;;;88.60;54.13;;;;;;;;;;2094279;28;20403;-74
2023/09/10 04:42:10;;;;;;;95.40;57.58;;;;;;;;;;2091856;28;20047;-74
2023/09/10 04:43:31;;;;;;;94.90;54.38;;;;;;;;;;2085806;28;20452;-73
2023/09/10 04:44:52;;;;;;;87.70;53.97;;;;;;;;;;2083867;28;20096;-73
2023/09/10 04:46:13;;;;;;;89.15;53.92;;;;;;;;;;2087896;28;20033;-73
2023/09/10 04:47:33;;;;;;;97.60;57.85;;;;;;;;;;2082838;28;20135;-73
2023/09/10 04:48:55;;;;;;;95.45;57.08;;;;;;;;;;2088246;28;20045;-74
2023/09/10 04:50:16;;;;;;;93.28;56.28;;;;;;;;;;2093046;28;20033;-73
2023/09/10 04:51:37;;;;;;;92.90;56.20;;;;;;;;;;2096031;28;20029;-74
2023/09/10 04:52:59;;;;;;;94.38;57.45;;;;;;;;;;2094620;28;20040;-73
2023/09/10 04:54:20;;;;;;;96.38;58.20;;;;;;;;;;2092192;28;20089;-73
2023/09/10 04:55:41;;;;;;;99.50;56.65;;;;;;;;;;2094860;28;20032;-73
2023/09/10 04:57:02;;;;;;;95.03;56.20;;;;;;;;;;2094695;28;20036;-73
2023/09/10 04:58:23;;;;;;;92.88;55.92;;;;;;;;;;2097035;28;20539;-73
2023/09/10 04:59:45;;;;;;;90.65;54.75;;;;;;;;;;2088931;28;20036;-73
2023/09/10 05:01:06;;;;;;;86.70;54.33;;;;;;;;;;2097041;28;20643;-72
2023/09/10 05:02:27;;;;;;;85.53;50.33;;;;;;;;;;2090101;28;20040;-71
2023/09/10 05:03:48;;;;;;;92.30;56.35;;;;;;;;;;2092316;28;20017;-72
2023/09/10 05:05:09;;;;;;;88.25;51.92;;;;;;;;;;2100432;28;20093;-71
2023/09/10 05:06:30;;;;;;;91.93;56.13;;;;;;;;;;2094796;28;20028;-72
2023/09/10 05:07:50;;;;;;;91.25;55.78;;;;;;;;;;2093916;28;20056;-72
2023/09/10 05:09:11;;;;;;;83.78;52.95;;;;;;;;;;2094712;28;20089;-72
2023/09/10 05:10:32;;;;;;;91.20;54.05;;;;;;;;;;2096220;28;20035;-72
2023/09/10 05:11:56;;;;;;;87.60;54.20;;;;;;;;;;2091055;28;20033;-72
2023/09/10 05:13:17;;;;;;;87.20;53.65;;;;;;;;;;2093985;28;20090;-72
2023/09/10 05:14:38;;;;;;;83.45;51.60;;;;;;;;;;2085704;28;20045;-72
2023/09/10 05:15:59;;;;;;;91.20;54.72;;;;;;;;;;2084793;28;20036;-73
2023/09/10 05:17:20;;;;;;;90.80;54.58;;;;;;;;;;2088907;28;20028;-72
2023/09/10 05:18:41;;;;;;;89.93;53.90;;;;;;;;;;2083533;28;20661;-72
2023/09/10 05:20:02;;;;;;;92.35;55.72;;;;;;;;;;2094306;28;20098;-72
2023/09/10 05:21:23;;;;;;;90.68;56.60;;;;;;;;;;2093655;28;20451;-73
2023/09/10 05:22:44;;;;;;;93.57;56.30;;;;;;;;;;2097852;28;20061;-73
2023/09/10 05:24:06;;;;;;;88.90;54.25;;;;;;;;;;2095956;28;20059;-71
2023/09/10 05:25:27;;;;;;;92.95;55.13;;;;;;;;;;2091928;28;20094;-72
2023/09/10 05:26:48;;;;;;;92.10;54.97;;;;;;;;;;2095781;28;20098;-71
2023/09/10 05:28:09;;;;;;;87.47;53.97;;;;;;;;;;2092977;28;20064;-73
2023/09/10 05:29:29;;;;;;;93.25;55.65;;;;;;;;;;2098501;28;20097;-72
2023/09/10 05:30:50;;;;;;;95.65;56.47;;;;;;;;;;2093715;28;20028;-73
2023/09/10 05:32:11;;;;;;;88.82;54.30;;;;;;;;;;2087621;28;20491;-73
2023/09/10 05:33:33;;;;;;;89.32;54.67;;;;;;;;;;2092115;28;20048;-74
2023/09/10 05:34:54;;;;;;;85.18;54.17;;;;;;;;;;2093540;28;20028;-74
2023/09/10 05:36:15;;;;;;;93.68;55.53;;;;;;;;;;2095429;28;20036;-74
2023/09/10 05:37:36;;;;;;;89.30;54.10;;;;;;;;;;2087673;28;20083;-73
2023/09/10 05:38:56;;;;;;;94.32;55.13;;;;;;;;;;2089807;28;20036;-74
2023/09/10 05:40:17;;;;;;;96.07;57.83;;;;;;;;;;2095560;28;20032;-73
2023/09/10 05:41:38;;;;;;;95.25;55.30;;;;;;;;;;2094328;28;20037;-73
2023/09/10 05:42:59;;;;;;;94.80;55.40;;;;;;;;;;2086391;28;20088;-73
2023/09/10 05:44:20;;;;;;;87.80;53.05;;;;;;;;;;2092211;28;20081;-74
2023/09/10 05:45:41;;;;;;;93.78;55.10;;;;;;;;;;2096129;28;20399;-74
2023/09/10 05:47:02;;;;;;;86.70;52.65;;;;;;;;;;2095470;28;20048;-74
2023/09/10 05:48:23;;;;;;;91.10;55.60;;;;;;;;;;2094513;28;20040;-74
2023/09/10 05:49:44;;;;;;;99.03;56.78;;;;;;;;;;2095915;28;20545;-74
2023/09/10 05:51:05;;;;;;;91.13;54.83;;;;;;;;;;2095050;28;20037;-74
2023/09/10 05:52:26;;;;;;;88.40;55.45;;;;;;;;;;2090427;28;20059;-74
2023/09/10 05:53:47;;;;;;;90.07;55.25;;;;;;;;;;2092946;28;20409;-74
2023/09/10 05:55:08;;;;;;;89.15;54.67;;;;;;;;;;2094311;28;20086;-74
2023/09/10 05:56:28;;;;;;;94.82;55.55;;;;;;;;;;2096773;28;20032;-74
2023/09/10 05:57:52;;;;;;;95.18;55.47;;;;;;;;;;2095781;28;20078;-74
2023/09/10 05:59:13;;;;;;;97.05;56.13;;;;;;;;;;2095033;28;20468;-74
2023/09/10 06:00:34;;;;;;;88.18;53.83;;;;;;;;;;2088797;28;20029;-74
2023/09/10 06:01:55;;;;;;;94.00;55.05;;;;;;;;;;2091610;28;20040;-74
2023/09/10 06:03:16;;;;;;;90.57;54.42;;;;;;;;;;2085146;28;20264;-74
2023/09/10 06:04:37;;;;;;;92.47;55.50;;;;;;;;;;2089621;28;20082;-74
2023/09/10 06:06:00;;;;;;;89.32;55.00;;;;;;;;;;2099334;28;20434;-74
2023/09/10 06:07:21;;;;;;;87.28;55.58;;;;;;;;;;2100617;28;20047;-73
2023/09/10 06:08:42;;;;;;;93.32;55.55;;;;;;;;;;2091418;28;20100;-75
2023/09/10 06:10:08;;;;;;;89.50;55.95;;;;;;;;;;2086079;28;20842;-74
2023/09/10 06:11:29;;;;;;;89.72;54.35;;;;;;;;;;2097482;28;20059;-73
2023/09/10 06:12:50;;;;;;;98.85;51.17;;;;;;;;;;2091850;28;20103;-73
2023/09/10 06:14:11;;;;;;;85.05;51.47;;;;;;;;;;2092792;28;20067;-73
2023/09/10 06:15:32;;;;;;;91.22;54.10;;;;;;;;;;2087318;28;20455;-73
2023/09/10 06:16:53;;;;;;;89.07;52.33;;;;;;;;;;2100895;28;20043;-74
2023/09/10 06:18:14;;;;;;;93.38;55.70;;;;;;;;;;2096059;28;20039;-73
2023/09/10 06:19:35;;;;;;;92.28;55.97;;;;;;;;;;2093567;28;20077;-73
2023/09/10 06:20:56;;;;;;;82.00;51.35;;;;;;;;;;2099196;28;20028;-74
2023/09/10 06:22:17;;;;;;;83.82;51.92;;;;;;;;;;2089349;28;20032;-74
2023/09/10 06:23:37;;;;;;;82.00;50.63;;;;;;;;;;2096392;28;20099;-74
2023/09/10 06:24:58;;;;;;;84.60;51.95;;;;;;;;;;2094321;28;20041;-74
2023/09/10 06:26:19;;;;;;;84.93;51.38;;;;;;;;;;2093778;28;20024;-74
2023/09/10 06:27:40;;;;;;;88.78;53.40;;;;;;;;;;2097528;28;20048;-74
2023/09/10 06:29:01;;;;;;;88.15;53.78;;;;;;;;;;2086323;28;20029;-75
2023/09/10 06:30:22;;;;;;;85.00;51.55;;;;;;;;;;2093711;28;20033;-74
2023/09/10 06:31:43;;;;;;;82.95;51.33;;;;;;;;;;2098086;28;20440;-74
2023/09/10 06:33:04;;;;;;;91.18;55.17;;;;;;;;;;2092076;28;20036;-74
2023/09/10 06:34:25;;;;;;;84.28;52.97;;;;;;;;;;2097790;28;20423;-74
2023/09/10 06:35:46;;;;;;;83.78;51.35;;;;;;;;;;2089452;28;20034;-73
2023/09/10 06:37:07;;;;;;;90.07;55.65;;;;;;;;;;2087723;28;20037;-74
2023/09/10 06:38:28;;;;;;;85.28;53.20;;;;;;;;;;2083917;28;20105;-74
2023/09/10 06:39:49;;;;;;;92.17;54.63;;;;;;;;;;2093836;28;20033;-74
2023/09/10 06:41:09;;;;;;;84.57;55.25;;;;;;;;;;2091744;28;20094;-74
2023/09/10 06:42:31;;;;;;;87.60;53.75;;;;;;;;;;2088187;28;20033;-74
2023/09/10 06:43:52;;;;;;;92.78;56.92;;;;;;;;;;2093046;28;20094;-71
2023/09/10 06:45:13;;;;;;;78.93;50.63;;;;;;;;;;2094691;28;20041;-74
2023/09/10 06:46:34;;;;;;;78.88;50.80;;;;;;;;;;2093726;28;21491;-70
2023/09/10 06:47:55;;;;;;;78.50;50.75;;;;;;;;;;2085909;28;20302;-72
2023/09/10 06:49:15;;;;;;;78.22;50.10;;;;;;;;;;2092236;28;20050;-70
2023/09/10 06:50:36;;;;;;;81.80;51.85;;;;;;;;;;2094847;28;20512;-73
2023/09/10 06:51:57;;;;;;;84.53;52.22;;;;;;;;;;2101052;28;20024;-72
2023/09/10 06:53:18;;;;;;;83.93;51.33;;;;;;;;;;2094573;28;20028;-71
2023/09/10 06:54:39;;;;;;;79.85;51.30;;;;;;;;;;2089842;28;20036;-71
2023/09/10 06:56:00;;;;;;;85.78;51.58;;;;;;;;;;2081426;28;20048;-72
2023/09/10 06:57:21;;;;;;;76.60;50.35;;;;;;;;;;2085635;28;20099;-73
2023/09/10 06:58:42;;;;;;;81.78;50.67;;;;;;;;;;2091917;28;20480;-72
2023/09/10 07:00:03;;;;;;;80.15;50.85;;;;;;;;;;2086853;28;20029;-70
2023/09/10 07:01:24;;;;;;;80.97;53.28;;;;;;;;;;2082989;28;20040;-72
2023/09/10 07:02:44;;;;;;;85.55;50.80;;;;;;;;;;2085909;28;20037;-70
2023/09/10 07:04:35;;;;;;;78.70;49.42;;;;;;;;;;2094639;28;20171;-70
2023/09/10 07:05:56;;;;;;;85.43;52.03;;;;;;;;;;2083968;28;20068;-71
2023/09/10 07:07:17;;;;;;;83.28;51.15;;;;;;;;;;2082604;28;20036;-73
2023/09/10 07:08:38;;;;;;;78.70;50.20;;;;;;;;;;2092518;28;20035;-70
2023/09/10 07:09:59;;;;;;;75.35;49.03;;;;;;;;;;2093776;28;20491;-72
2023/09/10 07:11:20;;;;;;;73.57;47.60;;;;;;;;;;2087653;28;20090;-72
2023/09/10 07:12:41;;;;;;;84.93;51.03;;;;;;;;;;2096551;28;20024;-71
2023/09/10 07:14:01;;;;;;;80.30;50.25;;;;;;;;;;2086451;28;20040;-71
2023/09/10 07:15:22;;;;;;;80.57;50.85;;;;;;;;;;2087416;28;20127;-72
2023/09/10 07:16:44;;;;;;;71.47;47.80;;;;;;;;;;2088327;28;20157;-71
2023/09/10 07:18:05;;;;;;;76.50;48.63;;;;;;;;;;2089467;28;20036;-72
2023/09/10 07:19:26;;;;;;;74.90;47.97;;;;;;;;;;2095526;28;20074;-71
2023/09/10 07:20:47;;;;;;;77.25;47.45;;;;;;;;;;2101563;28;20423;-72
2023/09/10 07:22:08;;;;;;;75.72;46.88;;;;;;;;;;2096391;28;20412;-71
2023/09/10 07:23:29;;;;;;;79.53;46.63;;;;;;;;;;2085490;28;20534;-71
2023/09/10 07:24:50;;;;;;;70.53;48.70;;;;;;;;;;2093657;28;20036;-70
2023/09/10 07:26:11;;;;;;;71.87;44.47;;;;;;;;;;2101018;28;20025;-70
2023/09/10 07:27:32;;;;;;;74.00;47.58;;;;;;;;;;2093443;28;20039;-71
2023/09/10 07:28:52;;;;;;;75.40;49.88;;;;;;;;;;2095258;28;20044;-72
2023/09/10 07:30:13;;;;;;;77.45;48.33;;;;;;;;;;2087748;28;20037;-69
2023/09/10 07:31:34;;;;;;;69.90;47.00;;;;;;;;;;2088916;28;20089;-70
2023/09/10 07:32:55;;;;;;;71.53;45.92;;;;;;;;;;2083841;28;20029;-73
2023/09/10 07:34:18;;;;;;;72.72;46.05;;;;;;;;;;2082153;28;20297;-70
2023/09/10 07:35:39;;;;;;;74.63;47.58;;;;;;;;;;2088616;28;20036;-71
2023/09/10 07:37:00;;;;;;;78.50;47.45;;;;;;;;;;2095317;28;20037;-71
2023/09/10 07:38:21;;;;;;;63.53;41.97;;;;;;;;;;2096942;28;20039;-73
2023/09/10 07:39:42;;;;;;;70.47;46.45;;;;;;;;;;2098480;28;20404;-72
2023/09/10 07:41:03;;;;;;;67.15;44.15;;;;;;;;;;2094873;28;20024;-72
2023/09/10 07:42:24;;;;;;;66.72;45.35;;;;;;;;;;2086665;28;20025;-69
2023/09/10 07:43:44;;;;;;;71.63;43.70;;;;;;;;;;2089500;28;20029;-69
2023/09/10 07:45:13;;;;;;;63.88;42.67;;;;;;;;;;2088946;28;20201;-73
2023/09/10 07:46:34;;;;;;;60.05;41.25;;;;;;;;;;2082265;28;20151;-71
2023/09/10 07:47:56;;;;;;;63.60;41.03;;;;;;;;;;2090147;28;20032;-71
2023/09/10 07:49:17;;;;;;;64.35;41.65;;;;;;;;;;2088114;28;20021;-72
2023/09/10 07:50:38;;;;;;;61.50;39.20;;;;;;;;;;2089053;28;20029;-70
2023/09/10 07:51:59;;;;;;;61.00;41.85;;;;;;;;;;2089332;28;20027;-72
2023/09/10 07:53:20;;;;;;;55.83;40.22;;;;;;;;;;2094026;28;20029;-72
2023/09/10 07:54:42;;;;;;;61.92;42.72;;;;;;;;;;2095060;28;20488;-75
2023/09/10 07:56:03;;;;;;;;;;;;;;;;;;2091534;28;20484;-76
2023/09/10 07:57:24;;;;;;;52.70;37.15;;;;;;;;;;2091751;28;19909;-75
2023/09/10 07:58:45;;;;;;;52.70;38.87;;;;;;;;;;2099040;28;20495;-75